map of KVPC home
KVPC - Airport
Location
City:  Cartersville, Georgia, United States
ICAO:KVPC
FAA LID:VPC

Details
Type:Airport (Airfield)
Use:Public/Civil
Latitude:3407'23"N (34.123147)
Longitude:8450'55"W (-84.848706)
Datum:WGS 1984
Elevation:758 ft (231 m)
Variation:4.86W (WMM2015 magnetic declination)
-0.08 annual change
Runways:1
Longest:5760 × 100 ft (1756 × 30.5 m), paved

Time
Time Zone:UTC-5 (DST-4)
Local Time:

Weather
METAR:KVPC 221453Z AUTO 07005KT 10SM OVC065 21/17 A3025 RMK AO2 SLP235 T02060172 58004 $

Related Locations
Nearby:
Farthest:MQZ: 11301 mi / 18187 km
Margaret River [Margaret River Airport], WA, AU

Find:

   beyond  
but within

Other Information
Maps:
NOTAMs:
Links:
Sources:

  
flag of United States
flag of Georgia
  

Sectional Chart

Flight Planning
at skyvector.com

Satellite Image

Google Maps Satellite view

 

Copyright © 2004-2017 Karl L. Swartz. All rights reserved.
The Great Circle Mapper name and logo are trademarks of the Great Circle Mapper.
All other trademarks mentioned herein belong to their respective owners.
Please see credits for attibutions and further copyright information.

  Follow gcmap on Facebook Follow gcmap on Twitter Follow gcmap on Google+ GCmap on LinkedIn

hCard Microformat

Geo Microformat